sensor_id;sensor_type;location;lat;lon;timestamp;P1;durP1;ratioP1;P2;durP2;ratioP2
18046;SDS011;9148;51.454;13.862;2022-07-03T00:01:16;1.83;;;0.98;;
18046;SDS011;9148;51.454;13.862;2022-07-03T00:03:42;1.42;;;1.33;;
18046;SDS011;9148;51.454;13.862;2022-07-03T00:06:07;1.33;;;0.85;;
18046;SDS011;9148;51.454;13.862;2022-07-03T00:08:33;3.42;;;1.25;;
18046;SDS011;9148;51.454;13.862;2022-07-03T00:10:59;7.17;;;1.67;;
18046;SDS011;9148;51.454;13.862;2022-07-03T00:13:25;1.08;;;1.00;;
18046;SDS011;9148;51.454;13.862;2022-07-03T00:15:50;3.30;;;1.52;;
18046;SDS011;9148;51.454;13.862;2022-07-03T00:18:16;1.85;;;1.52;;
18046;SDS011;9148;51.454;13.862;2022-07-03T00:20:45;1.17;;;0.95;;
18046;SDS011;9148;51.454;13.862;2022-07-03T00:23:17;1.13;;;1.07;;
18046;SDS011;9148;51.454;13.862;2022-07-03T00:25:46;1.00;;;1.00;;
18046;SDS011;9148;51.454;13.862;2022-07-03T00:28:15;4.10;;;1.98;;
18046;SDS011;9148;51.454;13.862;2022-07-03T00:30:44;1.50;;;1.08;;
18046;SDS011;9148;51.454;13.862;2022-07-03T00:33:12;2.20;;;1.67;;
18046;SDS011;9148;51.454;13.862;2022-07-03T00:35:39;1.67;;;1.30;;
18046;SDS011;9148;51.454;13.862;2022-07-03T00:38:08;1.75;;;1.20;;
18046;SDS011;9148;51.454;13.862;2022-07-03T00:40:37;1.57;;;1.47;;
18046;SDS011;9148;51.454;13.862;2022-07-03T00:43:03;1.70;;;1.40;;
18046;SDS011;9148;51.454;13.862;2022-07-03T00:45:33;2.00;;;1.67;;
18046;SDS011;9148;51.454;13.862;2022-07-03T00:47:59;1.63;;;1.20;;
18046;SDS011;9148;51.454;13.862;2022-07-03T00:50:26;2.43;;;1.20;;
18046;SDS011;9148;51.454;13.862;2022-07-03T00:53:02;1.53;;;1.30;;
18046;SDS011;9148;51.454;13.862;2022-07-03T00:55:28;1.47;;;1.30;;
18046;SDS011;9148;51.454;13.862;2022-07-03T00:57:54;1.70;;;1.43;;
18046;SDS011;9148;51.454;13.862;2022-07-03T01:00:22;3.27;;;1.63;;
18046;SDS011;9148;51.454;13.862;2022-07-03T01:05:39;1.30;;;1.00;;
18046;SDS011;9148;51.454;13.862;2022-07-03T01:08:11;1.83;;;1.33;;
18046;SDS011;9148;51.454;13.862;2022-07-03T01:11:05;4.13;;;1.77;;
18046;SDS011;9148;51.454;13.862;2022-07-03T01:14:24;1.30;;;1.20;;
18046;SDS011;9148;51.454;13.862;2022-07-03T01:17:05;2.17;;;0.90;;
18046;SDS011;9148;51.454;13.862;2022-07-03T01:19:44;1.83;;;1.17;;
18046;SDS011;9148;51.454;13.862;2022-07-03T01:22:30;1.23;;;1.13;;
18046;SDS011;9148;51.454;13.862;2022-07-03T01:25:12;1.73;;;1.63;;
18046;SDS011;9148;51.454;13.862;2022-07-03T01:27:45;1.40;;;1.30;;
18046;SDS011;9148;51.454;13.862;2022-07-03T01:30:35;1.47;;;1.37;;
18046;SDS011;9148;51.454;13.862;2022-07-03T01:33:17;1.57;;;1.30;;
18046;SDS011;9148;51.454;13.862;2022-07-03T01:38:32;1.37;;;1.13;;
18046;SDS011;9148;51.454;13.862;2022-07-03T01:41:03;1.57;;;1.20;;
18046;SDS011;9148;51.454;13.862;2022-07-03T01:43:33;1.47;;;1.37;;
18046;SDS011;9148;51.454;13.862;2022-07-03T01:46:02;1.53;;;1.40;;
18046;SDS011;9148;51.454;13.862;2022-07-03T01:48:29;1.43;;;1.33;;
18046;SDS011;9148;51.454;13.862;2022-07-03T01:50:57;1.30;;;1.20;;
18046;SDS011;9148;51.454;13.862;2022-07-03T01:53:25;1.77;;;1.67;;
18046;SDS011;9148;51.454;13.862;2022-07-03T01:55:54;2.20;;;2.00;;
18046;SDS011;9148;51.454;13.862;2022-07-03T01:58:24;2.47;;;1.70;;
18046;SDS011;9148;51.454;13.862;2022-07-03T02:01:02;1.83;;;1.73;;
18046;SDS011;9148;51.454;13.862;2022-07-03T02:03:37;2.37;;;1.93;;
18046;SDS011;9148;51.454;13.862;2022-07-03T02:07:08;2.63;;;1.80;;
18046;SDS011;9148;51.454;13.862;2022-07-03T02:09:09;2.10;;;1.90;;
18046;SDS011;9148;51.454;13.862;2022-07-03T02:11:37;2.60;;;1.77;;
18046;SDS011;9148;51.454;13.862;2022-07-03T02:14:13;1.50;;;1.40;;
18046;SDS011;9148;51.454;13.862;2022-07-03T02:16:52;2.13;;;1.67;;
18046;SDS011;9148;51.454;13.862;2022-07-03T02:22:19;1.97;;;1.77;;
18046;SDS011;9148;51.454;13.862;2022-07-03T02:24:50;3.07;;;2.03;;
18046;SDS011;9148;51.454;13.862;2022-07-03T02:27:21;5.00;;;1.40;;
18046;SDS011;9148;51.454;13.862;2022-07-03T02:30:03;1.90;;;1.77;;
18046;SDS011;9148;51.454;13.862;2022-07-03T02:33:05;1.63;;;1.53;;
18046;SDS011;9148;51.454;13.862;2022-07-03T02:35:25;1.80;;;1.70;;
18046;SDS011;9148;51.454;13.862;2022-07-03T02:38:09;2.10;;;1.90;;
18046;SDS011;9148;51.454;13.862;2022-07-03T02:46:20;1.70;;;1.53;;
18046;SDS011;9148;51.454;13.862;2022-07-03T02:51:52;1.70;;;1.60;;
18046;SDS011;9148;51.454;13.862;2022-07-03T02:54:47;2.67;;;1.90;;
18046;SDS011;9148;51.454;13.862;2022-07-03T02:57:14;4.70;;;1.80;;
18046;SDS011;9148;51.454;13.862;2022-07-03T02:59:57;1.90;;;1.60;;
18046;SDS011;9148;51.454;13.862;2022-07-03T03:11:02;2.20;;;1.87;;
18046;SDS011;9148;51.454;13.862;2022-07-03T03:13:33;1.47;;;1.37;;
18046;SDS011;9148;51.454;13.862;2022-07-03T03:16:07;1.83;;;1.50;;
18046;SDS011;9148;51.454;13.862;2022-07-03T03:18:39;2.20;;;1.90;;
18046;SDS011;9148;51.454;13.862;2022-07-03T03:21:08;2.67;;;2.20;;
18046;SDS011;9148;51.454;13.862;2022-07-03T03:26:17;2.60;;;2.27;;
18046;SDS011;9148;51.454;13.862;2022-07-03T03:28:45;2.00;;;1.53;;
18046;SDS011;9148;51.454;13.862;2022-07-03T03:31:11;1.47;;;1.37;;
18046;SDS011;9148;51.454;13.862;2022-07-03T03:33:41;3.40;;;1.90;;
18046;SDS011;9148;51.454;13.862;2022-07-03T03:36:10;3.60;;;1.70;;
18046;SDS011;9148;51.454;13.862;2022-07-03T03:38:38;3.40;;;2.37;;
18046;SDS011;9148;51.454;13.862;2022-07-03T03:41:05;2.27;;;2.07;;
18046;SDS011;9148;51.454;13.862;2022-07-03T03:43:32;2.40;;;1.83;;
18046;SDS011;9148;51.454;13.862;2022-07-03T03:45:59;1.80;;;1.70;;
18046;SDS011;9148;51.454;13.862;2022-07-03T03:48:26;2.10;;;1.67;;
18046;SDS011;9148;51.454;13.862;2022-07-03T03:50:53;3.13;;;2.10;;
18046;SDS011;9148;51.454;13.862;2022-07-03T03:53:19;3.40;;;2.67;;
18046;SDS011;9148;51.454;13.862;2022-07-03T03:55:52;2.20;;;2.00;;
18046;SDS011;9148;51.454;13.862;2022-07-03T03:58:28;2.70;;;2.20;;
18046;SDS011;9148;51.454;13.862;2022-07-03T04:00:57;2.93;;;2.07;;
18046;SDS011;9148;51.454;13.862;2022-07-03T04:03:24;4.57;;;2.17;;
18046;SDS011;9148;51.454;13.862;2022-07-03T04:05:51;1.80;;;1.70;;
18046;SDS011;9148;51.454;13.862;2022-07-03T04:08:18;3.70;;;1.70;;
18046;SDS011;9148;51.454;13.862;2022-07-03T04:10:46;1.77;;;1.30;;
18046;SDS011;9148;51.454;13.862;2022-07-03T04:13:13;2.27;;;1.63;;
18046;SDS011;9148;51.454;13.862;2022-07-03T04:15:39;1.60;;;1.50;;
18046;SDS011;9148;51.454;13.862;2022-07-03T04:18:05;2.63;;;2.43;;
18046;SDS011;9148;51.454;13.862;2022-07-03T04:20:31;2.10;;;1.73;;
18046;SDS011;9148;51.454;13.862;2022-07-03T04:22:57;4.23;;;1.70;;
18046;SDS011;9148;51.454;13.862;2022-07-03T04:25:23;10.37;;;2.53;;
18046;SDS011;9148;51.454;13.862;2022-07-03T04:27:49;1.53;;;1.43;;
18046;SDS011;9148;51.454;13.862;2022-07-03T04:30:14;2.40;;;1.77;;
18046;SDS011;9148;51.454;13.862;2022-07-03T04:32:40;1.53;;;1.43;;
18046;SDS011;9148;51.454;13.862;2022-07-03T04:35:06;2.23;;;1.97;;
18046;SDS011;9148;51.454;13.862;2022-07-03T04:37:32;2.93;;;1.73;;
18046;SDS011;9148;51.454;13.862;2022-07-03T04:39:58;1.97;;;1.80;;
18046;SDS011;9148;51.454;13.862;2022-07-03T04:42:24;3.50;;;2.53;;
18046;SDS011;9148;51.454;13.862;2022-07-03T04:44:49;1.50;;;1.40;;
18046;SDS011;9148;51.454;13.862;2022-07-03T04:47:15;1.52;;;1.42;;
18046;SDS011;9148;51.454;13.862;2022-07-03T04:49:41;4.03;;;1.55;;
18046;SDS011;9148;51.454;13.862;2022-07-03T04:52:07;1.45;;;1.35;;
18046;SDS011;9148;51.454;13.862;2022-07-03T04:54:34;3.47;;;1.58;;
18046;SDS011;9148;51.454;13.862;2022-07-03T04:56:59;1.67;;;1.50;;
18046;SDS011;9148;51.454;13.862;2022-07-03T04:59:25;2.53;;;1.58;;
18046;SDS011;9148;51.454;13.862;2022-07-03T05:01:51;2.35;;;1.75;;
18046;SDS011;9148;51.454;13.862;2022-07-03T05:04:17;2.03;;;1.90;;
18046;SDS011;9148;51.454;13.862;2022-07-03T05:06:43;2.00;;;1.50;;
18046;SDS011;9148;51.454;13.862;2022-07-03T05:09:09;1.40;;;1.25;;
18046;SDS011;9148;51.454;13.862;2022-07-03T05:11:35;2.28;;;1.33;;
18046;SDS011;9148;51.454;13.862;2022-07-03T05:14:01;2.17;;;1.55;;
18046;SDS011;9148;51.454;13.862;2022-07-03T05:16:30;1.55;;;1.45;;
18046;SDS011;9148;51.454;13.862;2022-07-03T05:18:56;1.40;;;1.30;;
18046;SDS011;9148;51.454;13.862;2022-07-03T05:21:22;1.20;;;1.10;;
18046;SDS011;9148;51.454;13.862;2022-07-03T05:23:48;2.05;;;1.65;;
18046;SDS011;9148;51.454;13.862;2022-07-03T05:26:14;1.35;;;1.15;;
18046;SDS011;9148;51.454;13.862;2022-07-03T05:28:40;1.48;;;1.38;;
18046;SDS011;9148;51.454;13.862;2022-07-03T05:31:06;1.90;;;1.80;;
18046;SDS011;9148;51.454;13.862;2022-07-03T05:33:31;1.42;;;1.02;;
18046;SDS011;9148;51.454;13.862;2022-07-03T05:35:57;1.15;;;1.05;;
18046;SDS011;9148;51.454;13.862;2022-07-03T05:38:24;1.48;;;1.25;;
18046;SDS011;9148;51.454;13.862;2022-07-03T05:41:13;1.20;;;1.10;;
18046;SDS011;9148;51.454;13.862;2022-07-03T05:43:38;1.33;;;0.90;;
18046;SDS011;9148;51.454;13.862;2022-07-03T05:46:04;1.10;;;1.00;;
18046;SDS011;9148;51.454;13.862;2022-07-03T05:48:30;1.95;;;0.88;;
18046;SDS011;9148;51.454;13.862;2022-07-03T05:50:56;1.95;;;0.88;;
18046;SDS011;9148;51.454;13.862;2022-07-03T05:53:22;1.25;;;1.15;;
18046;SDS011;9148;51.454;13.862;2022-07-03T05:55:48;0.88;;;0.73;;
18046;SDS011;9148;51.454;13.862;2022-07-03T05:58:14;0.93;;;0.80;;
18046;SDS011;9148;51.454;13.862;2022-07-03T06:00:40;0.70;;;0.70;;
18046;SDS011;9148;51.454;13.862;2022-07-03T06:03:06;0.77;;;0.77;;
18046;SDS011;9148;51.454;13.862;2022-07-03T06:05:32;0.75;;;0.75;;
18046;SDS011;9148;51.454;13.862;2022-07-03T06:07:58;0.90;;;0.90;;
18046;SDS011;9148;51.454;13.862;2022-07-03T06:10:24;1.85;;;1.17;;
18046;SDS011;9148;51.454;13.862;2022-07-03T06:12:52;0.85;;;0.85;;
18046;SDS011;9148;51.454;13.862;2022-07-03T06:15:18;4.45;;;1.35;;
18046;SDS011;9148;51.454;13.862;2022-07-03T06:17:43;1.23;;;1.13;;
18046;SDS011;9148;51.454;13.862;2022-07-03T06:20:09;1.75;;;1.02;;
18046;SDS011;9148;51.454;13.862;2022-07-03T06:22:35;2.40;;;1.33;;
18046;SDS011;9148;51.454;13.862;2022-07-03T06:25:02;1.25;;;0.90;;
18046;SDS011;9148;51.454;13.862;2022-07-03T06:27:28;2.83;;;1.10;;
18046;SDS011;9148;51.454;13.862;2022-07-03T06:29:53;1.23;;;1.08;;
18046;SDS011;9148;51.454;13.862;2022-07-03T06:32:19;2.28;;;0.90;;
18046;SDS011;9148;51.454;13.862;2022-07-03T06:34:45;1.08;;;1.00;;
18046;SDS011;9148;51.454;13.862;2022-07-03T06:37:11;1.33;;;1.08;;
18046;SDS011;9148;51.454;13.862;2022-07-03T06:39:37;1.00;;;0.68;;
18046;SDS011;9148;51.454;13.862;2022-07-03T06:42:03;1.23;;;0.73;;
18046;SDS011;9148;51.454;13.862;2022-07-03T06:44:29;1.15;;;0.98;;
18046;SDS011;9148;51.454;13.862;2022-07-03T06:46:55;0.60;;;0.50;;
18046;SDS011;9148;51.454;13.862;2022-07-03T06:49:21;1.25;;;0.82;;
18046;SDS011;9148;51.454;13.862;2022-07-03T06:51:47;0.93;;;0.75;;
18046;SDS011;9148;51.454;13.862;2022-07-03T06:54:13;0.85;;;0.85;;
18046;SDS011;9148;51.454;13.862;2022-07-03T06:56:38;1.17;;;0.70;;
18046;SDS011;9148;51.454;13.862;2022-07-03T06:59:04;1.45;;;0.85;;
18046;SDS011;9148;51.454;13.862;2022-07-03T07:01:30;0.88;;;0.80;;
18046;SDS011;9148;51.454;13.862;2022-07-03T07:03:55;0.93;;;0.90;;
18046;SDS011;9148;51.454;13.862;2022-07-03T07:06:22;1.23;;;0.85;;
18046;SDS011;9148;51.454;13.862;2022-07-03T07:08:47;1.27;;;1.10;;
18046;SDS011;9148;51.454;13.862;2022-07-03T07:11:13;2.53;;;1.30;;
18046;SDS011;9148;51.454;13.862;2022-07-03T07:13:39;1.75;;;1.15;;
18046;SDS011;9148;51.454;13.862;2022-07-03T07:16:05;0.63;;;0.63;;
18046;SDS011;9148;51.454;13.862;2022-07-03T07:18:31;1.23;;;0.95;;
18046;SDS011;9148;51.454;13.862;2022-07-03T07:20:56;1.50;;;1.00;;
18046;SDS011;9148;51.454;13.862;2022-07-03T07:23:22;1.65;;;1.05;;
18046;SDS011;9148;51.454;13.862;2022-07-03T07:25:48;1.55;;;0.90;;
18046;SDS011;9148;51.454;13.862;2022-07-03T07:28:13;0.80;;;0.80;;
18046;SDS011;9148;51.454;13.862;2022-07-03T07:30:39;1.00;;;0.93;;
18046;SDS011;9148;51.454;13.862;2022-07-03T07:33:08;1.08;;;0.90;;
18046;SDS011;9148;51.454;13.862;2022-07-03T07:35:34;0.82;;;0.50;;
18046;SDS011;9148;51.454;13.862;2022-07-03T07:38:00;1.92;;;0.60;;
18046;SDS011;9148;51.454;13.862;2022-07-03T07:40:26;0.88;;;0.70;;
18046;SDS011;9148;51.454;13.862;2022-07-03T07:42:52;2.30;;;1.23;;
18046;SDS011;9148;51.454;13.862;2022-07-03T07:45:18;1.10;;;0.75;;
18046;SDS011;9148;51.454;13.862;2022-07-03T07:47:44;1.52;;;1.13;;
18046;SDS011;9148;51.454;13.862;2022-07-03T07:50:09;0.88;;;0.85;;
18046;SDS011;9148;51.454;13.862;2022-07-03T07:52:36;2.45;;;1.20;;
18046;SDS011;9148;51.454;13.862;2022-07-03T07:55:02;1.20;;;1.02;;
18046;SDS011;9148;51.454;13.862;2022-07-03T07:57:35;1.83;;;0.80;;
18046;SDS011;9148;51.454;13.862;2022-07-03T08:00:09;1.20;;;1.10;;
18046;SDS011;9148;51.454;13.862;2022-07-03T08:02:38;1.25;;;0.47;;
18046;SDS011;9148;51.454;13.862;2022-07-03T08:05:23;0.82;;;0.77;;
18046;SDS011;9148;51.454;13.862;2022-07-03T08:08:05;2.88;;;0.90;;
18046;SDS011;9148;51.454;13.862;2022-07-03T08:10:48;0.75;;;0.73;;
18046;SDS011;9148;51.454;13.862;2022-07-03T08:13:16;1.80;;;0.90;;
18046;SDS011;9148;51.454;13.862;2022-07-03T08:15:43;1.13;;;1.02;;
18046;SDS011;9148;51.454;13.862;2022-07-03T08:18:10;1.15;;;1.05;;
18046;SDS011;9148;51.454;13.862;2022-07-03T08:20:36;3.13;;;1.00;;
18046;SDS011;9148;51.454;13.862;2022-07-03T08:23:02;0.60;;;0.60;;
18046;SDS011;9148;51.454;13.862;2022-07-03T08:25:29;0.85;;;0.70;;
18046;SDS011;9148;51.454;13.862;2022-07-03T08:27:56;1.92;;;1.00;;
18046;SDS011;9148;51.454;13.862;2022-07-03T08:30:22;0.63;;;0.63;;
18046;SDS011;9148;51.454;13.862;2022-07-03T08:32:49;1.08;;;0.75;;
18046;SDS011;9148;51.454;13.862;2022-07-03T08:35:16;0.90;;;0.70;;
18046;SDS011;9148;51.454;13.862;2022-07-03T08:37:42;1.23;;;0.68;;
18046;SDS011;9148;51.454;13.862;2022-07-03T08:40:11;1.38;;;0.90;;
18046;SDS011;9148;51.454;13.862;2022-07-03T08:45:23;0.80;;;0.80;;
18046;SDS011;9148;51.454;13.862;2022-07-03T08:47:50;0.60;;;0.60;;
18046;SDS011;9148;51.454;13.862;2022-07-03T08:50:19;0.88;;;0.60;;
18046;SDS011;9148;51.454;13.862;2022-07-03T08:52:46;1.17;;;0.93;;
18046;SDS011;9148;51.454;13.862;2022-07-03T08:55:13;0.82;;;0.82;;
18046;SDS011;9148;51.454;13.862;2022-07-03T08:57:41;1.08;;;0.70;;
18046;SDS011;9148;51.454;13.862;2022-07-03T09:00:12;0.70;;;0.65;;
18046;SDS011;9148;51.454;13.862;2022-07-03T09:02:42;1.15;;;0.85;;
18046;SDS011;9148;51.454;13.862;2022-07-03T09:05:10;0.75;;;0.75;;
18046;SDS011;9148;51.454;13.862;2022-07-03T09:07:38;1.27;;;0.68;;
18046;SDS011;9148;51.454;13.862;2022-07-03T09:10:06;0.50;;;0.50;;
18046;SDS011;9148;51.454;13.862;2022-07-03T09:12:40;0.63;;;0.40;;
18046;SDS011;9148;51.454;13.862;2022-07-03T09:15:09;0.80;;;0.80;;
18046;SDS011;9148;51.454;13.862;2022-07-03T09:17:35;0.80;;;0.77;;
18046;SDS011;9148;51.454;13.862;2022-07-03T09:20:03;0.60;;;0.60;;
18046;SDS011;9148;51.454;13.862;2022-07-03T09:22:33;0.77;;;0.77;;
18046;SDS011;9148;51.454;13.862;2022-07-03T09:25:08;1.70;;;0.93;;
18046;SDS011;9148;51.454;13.862;2022-07-03T09:27:48;0.80;;;0.77;;
18046;SDS011;9148;51.454;13.862;2022-07-03T09:30:16;1.42;;;0.80;;
18046;SDS011;9148;51.454;13.862;2022-07-03T09:32:43;0.40;;;0.38;;
18046;SDS011;9148;51.454;13.862;2022-07-03T09:35:18;0.55;;;0.55;;
18046;SDS011;9148;51.454;13.862;2022-07-03T09:40:18;2.10;;;1.25;;
18046;SDS011;9148;51.454;13.862;2022-07-03T09:48:35;0.95;;;0.80;;
18046;SDS011;9148;51.454;13.862;2022-07-03T09:53:45;0.68;;;0.68;;
18046;SDS011;9148;51.454;13.862;2022-07-03T10:01:40;0.55;;;0.50;;
18046;SDS011;9148;51.454;13.862;2022-07-03T10:09:27;0.50;;;0.50;;
18046;SDS011;9148;51.454;13.862;2022-07-03T10:11:59;0.80;;;0.80;;
18046;SDS011;9148;51.454;13.862;2022-07-03T10:14:28;0.65;;;0.65;;
18046;SDS011;9148;51.454;13.862;2022-07-03T10:16:56;0.68;;;0.40;;
18046;SDS011;9148;51.454;13.862;2022-07-03T10:19:25;1.33;;;0.90;;
18046;SDS011;9148;51.454;13.862;2022-07-03T10:21:54;3.83;;;0.80;;
18046;SDS011;9148;51.454;13.862;2022-07-03T10:24:22;1.23;;;0.75;;
18046;SDS011;9148;51.454;13.862;2022-07-03T10:26:53;1.02;;;0.93;;
18046;SDS011;9148;51.454;13.862;2022-07-03T10:29:21;1.02;;;0.80;;
18046;SDS011;9148;51.454;13.862;2022-07-03T10:31:48;0.60;;;0.47;;
18046;SDS011;9148;51.454;13.862;2022-07-03T10:34:25;0.55;;;0.55;;
18046;SDS011;9148;51.454;13.862;2022-07-03T10:36:56;0.70;;;0.70;;
18046;SDS011;9148;51.454;13.862;2022-07-03T10:42:52;0.63;;;0.52;;
18046;SDS011;9148;51.454;13.862;2022-07-03T10:51:50;0.68;;;0.65;;
18046;SDS011;9148;51.454;13.862;2022-07-03T10:54:48;0.68;;;0.45;;
18046;SDS011;9148;51.454;13.862;2022-07-03T10:57:14;0.60;;;0.60;;
18046;SDS011;9148;51.454;13.862;2022-07-03T11:07:24;0.70;;;0.70;;
18046;SDS011;9148;51.454;13.862;2022-07-03T11:18:29;1.95;;;0.77;;
18046;SDS011;9148;51.454;13.862;2022-07-03T11:26:35;0.75;;;0.70;;
18046;SDS011;9148;51.454;13.862;2022-07-03T11:29:00;0.57;;;0.57;;
18046;SDS011;9148;51.454;13.862;2022-07-03T11:31:26;1.88;;;1.25;;
18046;SDS011;9148;51.454;13.862;2022-07-03T11:36:25;0.55;;;0.50;;
18046;SDS011;9148;51.454;13.862;2022-07-03T11:41:22;1.50;;;0.52;;
18046;SDS011;9148;51.454;13.862;2022-07-03T11:43:51;1.80;;;0.85;;
18046;SDS011;9148;51.454;13.862;2022-07-03T11:46:26;0.95;;;0.73;;
18046;SDS011;9148;51.454;13.862;2022-07-03T11:51:42;0.57;;;0.55;;
18046;SDS011;9148;51.454;13.862;2022-07-03T11:54:20;1.00;;;0.63;;
18046;SDS011;9148;51.454;13.862;2022-07-03T11:56:45;0.50;;;0.50;;
18046;SDS011;9148;51.454;13.862;2022-07-03T11:59:11;0.95;;;0.50;;
18046;SDS011;9148;51.454;13.862;2022-07-03T12:01:38;0.77;;;0.77;;
18046;SDS011;9148;51.454;13.862;2022-07-03T12:06:36;2.03;;;0.70;;
18046;SDS011;9148;51.454;13.862;2022-07-03T12:09:14;0.43;;;0.43;;
18046;SDS011;9148;51.454;13.862;2022-07-03T12:11:41;1.73;;;0.82;;
18046;SDS011;9148;51.454;13.862;2022-07-03T12:17:18;0.60;;;0.47;;
18046;SDS011;9148;51.454;13.862;2022-07-03T12:19:50;0.38;;;0.38;;
18046;SDS011;9148;51.454;13.862;2022-07-03T12:22:28;0.50;;;0.50;;
18046;SDS011;9148;51.454;13.862;2022-07-03T12:27:42;0.95;;;0.57;;
18046;SDS011;9148;51.454;13.862;2022-07-03T12:30:15;0.45;;;0.45;;
18046;SDS011;9148;51.454;13.862;2022-07-03T12:32:44;0.73;;;0.60;;
18046;SDS011;9148;51.454;13.862;2022-07-03T12:35:11;1.50;;;0.50;;
18046;SDS011;9148;51.454;13.862;2022-07-03T12:37:37;0.60;;;0.60;;
18046;SDS011;9148;51.454;13.862;2022-07-03T12:40:06;0.40;;;0.40;;
18046;SDS011;9148;51.454;13.862;2022-07-03T12:42:47;0.55;;;0.50;;
18046;SDS011;9148;51.454;13.862;2022-07-03T12:45:19;0.82;;;0.50;;
18046;SDS011;9148;51.454;13.862;2022-07-03T12:47:59;0.40;;;0.40;;
18046;SDS011;9148;51.454;13.862;2022-07-03T12:50:44;0.57;;;0.47;;
18046;SDS011;9148;51.454;13.862;2022-07-03T12:53:10;0.25;;;0.20;;
18046;SDS011;9148;51.454;13.862;2022-07-03T12:55:36;0.50;;;0.45;;
18046;SDS011;9148;51.454;13.862;2022-07-03T12:58:10;0.52;;;0.52;;
18046;SDS011;9148;51.454;13.862;2022-07-03T13:01:00;0.30;;;0.30;;
18046;SDS011;9148;51.454;13.862;2022-07-03T13:03:31;0.30;;;0.28;;
18046;SDS011;9148;51.454;13.862;2022-07-03T13:06:00;1.20;;;0.57;;
18046;SDS011;9148;51.454;13.862;2022-07-03T13:08:26;0.60;;;0.60;;
18046;SDS011;9148;51.454;13.862;2022-07-03T13:10:55;0.75;;;0.50;;
18046;SDS011;9148;51.454;13.862;2022-07-03T13:13:25;0.35;;;0.32;;
18046;SDS011;9148;51.454;13.862;2022-07-03T13:15:51;0.63;;;0.63;;
18046;SDS011;9148;51.454;13.862;2022-07-03T13:18:17;0.43;;;0.40;;
18046;SDS011;9148;51.454;13.862;2022-07-03T13:20:43;0.90;;;0.30;;
18046;SDS011;9148;51.454;13.862;2022-07-03T13:23:09;0.80;;;0.68;;
18046;SDS011;9148;51.454;13.862;2022-07-03T13:25:35;0.38;;;0.38;;
18046;SDS011;9148;51.454;13.862;2022-07-03T13:30:40;0.52;;;0.45;;
18046;SDS011;9148;51.454;13.862;2022-07-03T13:33:07;0.57;;;0.57;;
18046;SDS011;9148;51.454;13.862;2022-07-03T13:35:34;0.50;;;0.45;;
18046;SDS011;9148;51.454;13.862;2022-07-03T13:38:01;3.30;;;0.60;;
18046;SDS011;9148;51.454;13.862;2022-07-03T13:40:28;0.40;;;0.40;;
18046;SDS011;9148;51.454;13.862;2022-07-03T13:42:54;0.80;;;0.57;;
18046;SDS011;9148;51.454;13.862;2022-07-03T13:45:19;0.45;;;0.45;;
18046;SDS011;9148;51.454;13.862;2022-07-03T13:47:45;0.57;;;0.57;;
18046;SDS011;9148;51.454;13.862;2022-07-03T13:50:11;0.57;;;0.40;;
18046;SDS011;9148;51.454;13.862;2022-07-03T13:52:36;0.65;;;0.35;;
18046;SDS011;9148;51.454;13.862;2022-07-03T13:55:03;0.93;;;0.40;;
18046;SDS011;9148;51.454;13.862;2022-07-03T13:57:30;0.40;;;0.30;;
18046;SDS011;9148;51.454;13.862;2022-07-03T13:59:57;0.35;;;0.35;;
18046;SDS011;9148;51.454;13.862;2022-07-03T14:02:23;0.93;;;0.40;;
18046;SDS011;9148;51.454;13.862;2022-07-03T14:04:50;0.30;;;0.30;;
18046;SDS011;9148;51.454;13.862;2022-07-03T14:07:15;0.55;;;0.45;;
18046;SDS011;9148;51.454;13.862;2022-07-03T14:09:41;1.45;;;0.43;;
18046;SDS011;9148;51.454;13.862;2022-07-03T14:12:07;0.70;;;0.63;;
18046;SDS011;9148;51.454;13.862;2022-07-03T14:14:33;1.15;;;0.47;;
18046;SDS011;9148;51.454;13.862;2022-07-03T14:16:58;1.75;;;0.30;;
18046;SDS011;9148;51.454;13.862;2022-07-03T14:19:24;0.47;;;0.47;;
18046;SDS011;9148;51.454;13.862;2022-07-03T14:21:50;1.30;;;0.63;;
18046;SDS011;9148;51.454;13.862;2022-07-03T14:24:16;0.73;;;0.47;;
18046;SDS011;9148;51.454;13.862;2022-07-03T14:26:41;0.43;;;0.40;;
18046;SDS011;9148;51.454;13.862;2022-07-03T14:29:26;0.50;;;0.30;;
18046;SDS011;9148;51.454;13.862;2022-07-03T14:32:10;0.93;;;0.52;;
18046;SDS011;9148;51.454;13.862;2022-07-03T14:34:53;0.40;;;0.38;;
18046;SDS011;9148;51.454;13.862;2022-07-03T14:37:20;0.68;;;0.68;;
18046;SDS011;9148;51.454;13.862;2022-07-03T14:39:46;0.40;;;0.32;;
18046;SDS011;9148;51.454;13.862;2022-07-03T14:42:13;0.57;;;0.28;;
18046;SDS011;9148;51.454;13.862;2022-07-03T14:44:39;0.65;;;0.50;;
18046;SDS011;9148;51.454;13.862;2022-07-03T14:47:05;0.40;;;0.40;;
18046;SDS011;9148;51.454;13.862;2022-07-03T14:49:30;0.77;;;0.60;;
18046;SDS011;9148;51.454;13.862;2022-07-03T14:51:58;0.60;;;0.40;;
18046;SDS011;9148;51.454;13.862;2022-07-03T14:54:26;0.47;;;0.47;;
18046;SDS011;9148;51.454;13.862;2022-07-03T14:56:53;0.50;;;0.43;;
18046;SDS011;9148;51.454;13.862;2022-07-03T15:02:19;0.93;;;0.52;;
18046;SDS011;9148;51.454;13.862;2022-07-03T15:07:33;0.45;;;0.30;;
18046;SDS011;9148;51.454;13.862;2022-07-03T15:10:10;0.40;;;0.30;;
18046;SDS011;9148;51.454;13.862;2022-07-03T15:12:50;0.90;;;0.60;;
18046;SDS011;9148;51.454;13.862;2022-07-03T15:15:18;0.45;;;0.45;;
18046;SDS011;9148;51.454;13.862;2022-07-03T15:17:48;0.70;;;0.70;;
18046;SDS011;9148;51.454;13.862;2022-07-03T15:20:18;0.32;;;0.32;;
18046;SDS011;9148;51.454;13.862;2022-07-03T15:22:46;0.40;;;0.40;;
18046;SDS011;9148;51.454;13.862;2022-07-03T15:25:13;0.73;;;0.32;;
18046;SDS011;9148;51.454;13.862;2022-07-03T15:27:44;0.22;;;0.20;;
18046;SDS011;9148;51.454;13.862;2022-07-03T15:30:20;0.50;;;0.40;;
18046;SDS011;9148;51.454;13.862;2022-07-03T15:32:47;0.73;;;0.50;;
18046;SDS011;9148;51.454;13.862;2022-07-03T15:35:18;0.57;;;0.43;;
18046;SDS011;9148;51.454;13.862;2022-07-03T15:37:49;0.30;;;0.30;;
18046;SDS011;9148;51.454;13.862;2022-07-03T15:46:52;0.50;;;0.30;;
18046;SDS011;9148;51.454;13.862;2022-07-03T15:49:38;0.68;;;0.40;;
18046;SDS011;9148;51.454;13.862;2022-07-03T15:52:13;0.70;;;0.50;;
18046;SDS011;9148;51.454;13.862;2022-07-03T16:00:09;0.57;;;0.40;;
18046;SDS011;9148;51.454;13.862;2022-07-03T16:05:39;0.65;;;0.40;;
18046;SDS011;9148;51.454;13.862;2022-07-03T16:08:08;0.80;;;0.60;;
18046;SDS011;9148;51.454;13.862;2022-07-03T16:10:37;0.30;;;0.30;;
18046;SDS011;9148;51.454;13.862;2022-07-03T16:13:04;0.40;;;0.40;;
18046;SDS011;9148;51.454;13.862;2022-07-03T16:15:40;0.30;;;0.30;;
18046;SDS011;9148;51.454;13.862;2022-07-03T16:18:08;0.65;;;0.43;;
18046;SDS011;9148;51.454;13.862;2022-07-03T16:20:35;0.47;;;0.47;;
18046;SDS011;9148;51.454;13.862;2022-07-03T16:23:05;0.38;;;0.30;;
18046;SDS011;9148;51.454;13.862;2022-07-03T16:25:34;0.30;;;0.30;;
18046;SDS011;9148;51.454;13.862;2022-07-03T16:28:02;1.13;;;0.70;;
18046;SDS011;9148;51.454;13.862;2022-07-03T16:30:43;0.60;;;0.35;;
18046;SDS011;9148;51.454;13.862;2022-07-03T16:33:14;1.55;;;0.45;;
18046;SDS011;9148;51.454;13.862;2022-07-03T16:35:46;0.20;;;0.20;;
18046;SDS011;9148;51.454;13.862;2022-07-03T16:38:18;0.65;;;0.47;;
18046;SDS011;9148;51.454;13.862;2022-07-03T16:40:48;1.92;;;0.60;;
18046;SDS011;9148;51.454;13.862;2022-07-03T16:43:16;1.10;;;0.60;;
18046;SDS011;9148;51.454;13.862;2022-07-03T16:45:46;0.30;;;0.30;;
18046;SDS011;9148;51.454;13.862;2022-07-03T16:48:15;0.40;;;0.40;;
18046;SDS011;9148;51.454;13.862;2022-07-03T16:50:51;0.82;;;0.82;;
18046;SDS011;9148;51.454;13.862;2022-07-03T16:53:22;0.40;;;0.40;;
18046;SDS011;9148;51.454;13.862;2022-07-03T16:55:49;0.50;;;0.50;;
18046;SDS011;9148;51.454;13.862;2022-07-03T16:58:15;0.47;;;0.47;;
18046;SDS011;9148;51.454;13.862;2022-07-03T17:00:43;0.40;;;0.40;;
18046;SDS011;9148;51.454;13.862;2022-07-03T17:03:09;0.65;;;0.52;;
18046;SDS011;9148;51.454;13.862;2022-07-03T17:05:37;1.10;;;0.77;;